sensor_id;sensor_type;location;lat;lon;timestamp;pressure;altitude;pressure_sealevel;temperature;humidity
81379;BME280;70830;42.290;-71.354;2023-08-06T00:01:18;100828.41;;;26.50;46.55
81379;BME280;70830;42.290;-71.354;2023-08-06T00:03:46;100827.53;;;26.42;46.76
81379;BME280;70830;42.290;-71.354;2023-08-06T00:06:12;100836.91;;;26.30;46.92
81379;BME280;70830;42.290;-71.354;2023-08-06T00:08:38;100834.47;;;26.18;47.64
81379;BME280;70830;42.290;-71.354;2023-08-06T00:11:04;100842.69;;;26.09;47.61
81379;BME280;70830;42.290;-71.354;2023-08-06T00:13:30;100839.59;;;26.04;47.54
81379;BME280;70830;42.290;-71.354;2023-08-06T00:15:56;100837.84;;;25.95;47.78
81379;BME280;70830;42.290;-71.354;2023-08-06T00:18:33;100835.06;;;25.87;48.32
81379;BME280;70830;42.290;-71.354;2023-08-06T00:20:59;100843.97;;;25.79;48.55
81379;BME280;70830;42.290;-71.354;2023-08-06T00:23:25;100851.97;;;25.71;48.41
81379;BME280;70830;42.290;-71.354;2023-08-06T00:25:51;100849.22;;;25.63;49.38
81379;BME280;70830;42.290;-71.354;2023-08-06T00:28:17;100854.41;;;25.57;49.19
81379;BME280;70830;42.290;-71.354;2023-08-06T00:30:42;100858.03;;;25.48;49.50
81379;BME280;70830;42.290;-71.354;2023-08-06T00:33:08;100859.34;;;25.43;49.57
81379;BME280;70830;42.290;-71.354;2023-08-06T00:35:35;100862.47;;;25.39;50.08
81379;BME280;70830;42.290;-71.354;2023-08-06T00:38:02;100854.28;;;25.31;49.66
81379;BME280;70830;42.290;-71.354;2023-08-06T00:40:28;100865.00;;;25.23;49.64
81379;BME280;70830;42.290;-71.354;2023-08-06T00:42:55;100877.38;;;25.16;49.77
81379;BME280;70830;42.290;-71.354;2023-08-06T00:45:21;100880.84;;;25.08;50.12
81379;BME280;70830;42.290;-71.354;2023-08-06T00:47:48;100885.16;;;25.01;50.56
81379;BME280;70830;42.290;-71.354;2023-08-06T00:50:14;100889.59;;;24.93;50.36
81379;BME280;70830;42.290;-71.354;2023-08-06T00:52:41;100890.34;;;24.85;51.14
81379;BME280;70830;42.290;-71.354;2023-08-06T00:55:07;100899.03;;;24.79;51.59
81379;BME280;70830;42.290;-71.354;2023-08-06T00:57:34;100900.59;;;24.72;51.81
81379;BME280;70830;42.290;-71.354;2023-08-06T01:00:00;100910.69;;;24.70;52.08
81379;BME280;70830;42.290;-71.354;2023-08-06T01:02:27;100913.13;;;24.63;52.54
81379;BME280;70830;42.290;-71.354;2023-08-06T01:04:54;100911.16;;;24.56;52.56
81379;BME280;70830;42.290;-71.354;2023-08-06T01:12:48;100919.72;;;24.32;51.79
81379;BME280;70830;42.290;-71.354;2023-08-06T01:15:26;100915.06;;;24.25;51.50
81379;BME280;70830;42.290;-71.354;2023-08-06T01:17:53;100928.97;;;24.20;51.46
81379;BME280;70830;42.290;-71.354;2023-08-06T01:20:20;100923.28;;;24.14;50.63
81379;BME280;70830;42.290;-71.354;2023-08-06T01:22:45;100927.44;;;24.08;50.24
81379;BME280;70830;42.290;-71.354;2023-08-06T01:25:15;100926.25;;;24.01;50.50
81379;BME280;70830;42.290;-71.354;2023-08-06T01:27:48;100933.91;;;23.96;50.14
81379;BME280;70830;42.290;-71.354;2023-08-06T01:32:50;100936.75;;;23.85;49.49
81379;BME280;70830;42.290;-71.354;2023-08-06T01:35:19;100948.09;;;23.79;49.47
81379;BME280;70830;42.290;-71.354;2023-08-06T01:37:47;100950.34;;;23.74;48.99
81379;BME280;70830;42.290;-71.354;2023-08-06T01:40:13;100937.88;;;23.63;48.27
81379;BME280;70830;42.290;-71.354;2023-08-06T01:42:40;100946.81;;;23.64;48.64
81379;BME280;70830;42.290;-71.354;2023-08-06T01:45:09;100945.53;;;23.58;48.42
81379;BME280;70830;42.290;-71.354;2023-08-06T01:47:36;100957.72;;;23.53;48.19
81379;BME280;70830;42.290;-71.354;2023-08-06T01:50:02;100948.47;;;23.46;48.16
81379;BME280;70830;42.290;-71.354;2023-08-06T01:52:28;100944.91;;;23.36;47.95
81379;BME280;70830;42.290;-71.354;2023-08-06T01:54:55;100952.53;;;23.30;47.65
81379;BME280;70830;42.290;-71.354;2023-08-06T01:57:21;100959.19;;;23.26;48.01
81379;BME280;70830;42.290;-71.354;2023-08-06T01:59:47;100958.72;;;23.21;47.60
81379;BME280;70830;42.290;-71.354;2023-08-06T02:02:13;100970.88;;;23.16;47.95
81379;BME280;70830;42.290;-71.354;2023-08-06T02:04:39;100968.03;;;23.08;47.62
81379;BME280;70830;42.290;-71.354;2023-08-06T02:07:05;100978.47;;;23.01;47.15
81379;BME280;70830;42.290;-71.354;2023-08-06T02:09:31;100976.44;;;22.94;48.24
81379;BME280;70830;42.290;-71.354;2023-08-06T02:11:57;100984.19;;;22.87;48.26
81379;BME280;70830;42.290;-71.354;2023-08-06T02:14:23;100985.72;;;22.80;48.36
81379;BME280;70830;42.290;-71.354;2023-08-06T02:16:49;100988.50;;;22.69;49.01
81379;BME280;70830;42.290;-71.354;2023-08-06T02:19:16;100986.19;;;22.65;48.90
81379;BME280;70830;42.290;-71.354;2023-08-06T02:21:42;100995.88;;;22.56;49.51
81379;BME280;70830;42.290;-71.354;2023-08-06T02:24:11;101002.66;;;22.50;49.63
81379;BME280;70830;42.290;-71.354;2023-08-06T02:26:36;100996.47;;;22.39;50.11
81379;BME280;70830;42.290;-71.354;2023-08-06T02:29:02;101005.06;;;22.33;50.94
81379;BME280;70830;42.290;-71.354;2023-08-06T02:31:28;101004.84;;;22.25;50.67
81379;BME280;70830;42.290;-71.354;2023-08-06T02:33:54;101010.75;;;22.19;50.44
81379;BME280;70830;42.290;-71.354;2023-08-06T02:36:20;101010.53;;;22.11;50.63
81379;BME280;70830;42.290;-71.354;2023-08-06T02:38:46;101011.56;;;21.99;51.29
81379;BME280;70830;42.290;-71.354;2023-08-06T02:41:12;101012.06;;;21.93;50.94
81379;BME280;70830;42.290;-71.354;2023-08-06T02:43:38;101017.19;;;21.84;51.70
81379;BME280;70830;42.290;-71.354;2023-08-06T02:46:04;101009.91;;;21.75;51.21
81379;BME280;70830;42.290;-71.354;2023-08-06T02:48:30;101018.44;;;21.69;52.20
81379;BME280;70830;42.290;-71.354;2023-08-06T02:51:00;101020.78;;;21.63;51.88
81379;BME280;70830;42.290;-71.354;2023-08-06T02:53:26;101018.09;;;21.63;51.80
81379;BME280;70830;42.290;-71.354;2023-08-06T02:55:52;101018.47;;;21.58;51.78
81379;BME280;70830;42.290;-71.354;2023-08-06T02:58:18;101024.81;;;21.57;51.52
81379;BME280;70830;42.290;-71.354;2023-08-06T03:01:02;101024.47;;;21.51;51.49
81379;BME280;70830;42.290;-71.354;2023-08-06T03:03:30;101020.56;;;21.44;52.59
81379;BME280;70830;42.290;-71.354;2023-08-06T03:05:56;101029.00;;;21.39;52.41
81379;BME280;70830;42.290;-71.354;2023-08-06T03:08:22;101021.44;;;21.33;52.21
81379;BME280;70830;42.290;-71.354;2023-08-06T03:10:49;101020.09;;;21.28;52.51
81379;BME280;70830;42.290;-71.354;2023-08-06T03:13:18;101022.19;;;21.24;52.79
81379;BME280;70830;42.290;-71.354;2023-08-06T03:15:55;101010.34;;;21.15;53.53
81379;BME280;70830;42.290;-71.354;2023-08-06T03:18:22;101009.25;;;21.07;52.73
81379;BME280;70830;42.290;-71.354;2023-08-06T03:20:48;101013.88;;;21.05;53.14
81379;BME280;70830;42.290;-71.354;2023-08-06T03:23:14;101013.38;;;21.00;53.10
81379;BME280;70830;42.290;-71.354;2023-08-06T03:25:40;101005.91;;;20.92;53.07
81379;BME280;70830;42.290;-71.354;2023-08-06T03:28:06;101004.69;;;20.85;53.72
81379;BME280;70830;42.290;-71.354;2023-08-06T03:30:32;101010.53;;;20.79;53.50
81379;BME280;70830;42.290;-71.354;2023-08-06T03:32:58;101013.31;;;20.78;53.81
81379;BME280;70830;42.290;-71.354;2023-08-06T03:35:24;101011.25;;;20.70;54.01
81379;BME280;70830;42.290;-71.354;2023-08-06T03:37:49;101010.03;;;20.63;54.24
81379;BME280;70830;42.290;-71.354;2023-08-06T03:40:15;101008.56;;;20.59;53.88
81379;BME280;70830;42.290;-71.354;2023-08-06T03:42:41;101014.41;;;20.53;53.71
81379;BME280;70830;42.290;-71.354;2023-08-06T03:45:08;101011.81;;;20.52;53.90
81379;BME280;70830;42.290;-71.354;2023-08-06T03:47:34;101013.03;;;20.48;54.20
81379;BME280;70830;42.290;-71.354;2023-08-06T03:50:00;101011.44;;;20.45;55.01
81379;BME280;70830;42.290;-71.354;2023-08-06T03:52:26;100999.38;;;20.39;54.94
81379;BME280;70830;42.290;-71.354;2023-08-06T03:54:52;100999.09;;;20.31;55.04
81379;BME280;70830;42.290;-71.354;2023-08-06T03:57:18;100995.69;;;20.29;54.83
81379;BME280;70830;42.290;-71.354;2023-08-06T03:59:44;101001.38;;;20.25;55.28
81379;BME280;70830;42.290;-71.354;2023-08-06T04:02:10;101002.47;;;20.22;54.53
81379;BME280;70830;42.290;-71.354;2023-08-06T04:04:39;101015.22;;;20.19;55.53
81379;BME280;70830;42.290;-71.354;2023-08-06T04:07:05;101000.72;;;20.10;55.32
81379;BME280;70830;42.290;-71.354;2023-08-06T04:09:31;101001.19;;;20.04;55.55
81379;BME280;70830;42.290;-71.354;2023-08-06T04:11:57;100998.84;;;20.00;56.29
81379;BME280;70830;42.290;-71.354;2023-08-06T04:14:25;100999.81;;;19.99;56.86
81379;BME280;70830;42.290;-71.354;2023-08-06T04:16:51;100993.84;;;19.95;56.59
81379;BME280;70830;42.290;-71.354;2023-08-06T04:19:17;100996.13;;;19.89;56.62
81379;BME280;70830;42.290;-71.354;2023-08-06T04:21:43;101000.59;;;19.88;56.48
81379;BME280;70830;42.290;-71.354;2023-08-06T04:24:09;101003.63;;;19.84;57.28
81379;BME280;70830;42.290;-71.354;2023-08-06T04:26:35;101001.41;;;19.78;57.76
81379;BME280;70830;42.290;-71.354;2023-08-06T04:29:01;101000.78;;;19.74;57.50
81379;BME280;70830;42.290;-71.354;2023-08-06T04:31:28;100996.09;;;19.65;57.56
81379;BME280;70830;42.290;-71.354;2023-08-06T04:33:54;101000.09;;;19.59;57.74
81379;BME280;70830;42.290;-71.354;2023-08-06T04:36:20;100990.59;;;19.55;58.65
81379;BME280;70830;42.290;-71.354;2023-08-06T04:38:46;100999.69;;;19.53;59.20
81379;BME280;70830;42.290;-71.354;2023-08-06T04:41:12;100986.25;;;19.42;58.81
81379;BME280;70830;42.290;-71.354;2023-08-06T04:43:39;100995.22;;;19.41;58.78
81379;BME280;70830;42.290;-71.354;2023-08-06T04:46:05;100992.00;;;19.36;59.98
81379;BME280;70830;42.290;-71.354;2023-08-06T04:48:31;100986.22;;;19.29;59.52
81379;BME280;70830;42.290;-71.354;2023-08-06T04:50:57;100985.81;;;19.23;59.39
81379;BME280;70830;42.290;-71.354;2023-08-06T04:53:23;100984.22;;;19.20;60.20
81379;BME280;70830;42.290;-71.354;2023-08-06T04:55:49;100992.69;;;19.14;60.71
81379;BME280;70830;42.290;-71.354;2023-08-06T04:58:15;100979.75;;;19.08;60.39
81379;BME280;70830;42.290;-71.354;2023-08-06T05:00:41;100974.63;;;19.05;61.03
81379;BME280;70830;42.290;-71.354;2023-08-06T05:03:07;100976.00;;;18.98;60.86
81379;BME280;70830;42.290;-71.354;2023-08-06T05:05:33;100979.88;;;18.94;61.54
81379;BME280;70830;42.290;-71.354;2023-08-06T05:07:59;100971.31;;;18.89;61.08
81379;BME280;70830;42.290;-71.354;2023-08-06T05:10:25;100978.59;;;18.87;61.70
81379;BME280;70830;42.290;-71.354;2023-08-06T05:12:51;100984.19;;;18.84;61.36
81379;BME280;70830;42.290;-71.354;2023-08-06T05:15:18;100980.75;;;18.82;61.69
81379;BME280;70830;42.290;-71.354;2023-08-06T05:17:43;100982.69;;;18.80;61.43
81379;BME280;70830;42.290;-71.354;2023-08-06T05:20:10;100982.03;;;18.76;62.31
81379;BME280;70830;42.290;-71.354;2023-08-06T05:22:36;100999.03;;;18.75;62.20
81379;BME280;70830;42.290;-71.354;2023-08-06T05:25:02;100988.88;;;18.68;61.99
81379;BME280;70830;42.290;-71.354;2023-08-06T05:27:28;100995.41;;;18.64;61.97
81379;BME280;70830;42.290;-71.354;2023-08-06T05:29:57;100996.66;;;18.58;62.21
81379;BME280;70830;42.290;-71.354;2023-08-06T05:32:23;101008.22;;;18.59;62.18
81379;BME280;70830;42.290;-71.354;2023-08-06T05:34:49;100994.84;;;18.46;62.84
81379;BME280;70830;42.290;-71.354;2023-08-06T05:37:15;101002.94;;;18.45;63.68
81379;BME280;70830;42.290;-71.354;2023-08-06T05:39:41;100995.22;;;18.40;63.67
81379;BME280;70830;42.290;-71.354;2023-08-06T05:42:07;101005.16;;;18.38;63.75
81379;BME280;70830;42.290;-71.354;2023-08-06T05:44:34;101003.53;;;18.36;63.99
81379;BME280;70830;42.290;-71.354;2023-08-06T05:47:00;101003.03;;;18.30;63.51
81379;BME280;70830;42.290;-71.354;2023-08-06T05:49:26;101003.34;;;18.26;64.53
81379;BME280;70830;42.290;-71.354;2023-08-06T05:51:52;101003.72;;;18.20;64.26
81379;BME280;70830;42.290;-71.354;2023-08-06T05:54:19;100997.13;;;18.13;64.16
81379;BME280;70830;42.290;-71.354;2023-08-06T05:56:46;100998.25;;;18.09;64.38
81379;BME280;70830;42.290;-71.354;2023-08-06T05:59:12;100988.09;;;18.01;64.70
81379;BME280;70830;42.290;-71.354;2023-08-06T06:01:38;101002.50;;;17.99;64.36
81379;BME280;70830;42.290;-71.354;2023-08-06T06:04:04;101005.59;;;17.93;64.81
81379;BME280;70830;42.290;-71.354;2023-08-06T06:06:30;101004.16;;;17.87;64.85
81379;BME280;70830;42.290;-71.354;2023-08-06T06:08:56;101006.38;;;17.81;64.80
81379;BME280;70830;42.290;-71.354;2023-08-06T06:11:22;101003.16;;;17.76;65.30
81379;BME280;70830;42.290;-71.354;2023-08-06T06:13:50;101007.75;;;17.74;65.17
81379;BME280;70830;42.290;-71.354;2023-08-06T06:16:16;101009.66;;;17.72;65.41
81379;BME280;70830;42.290;-71.354;2023-08-06T06:18:42;101005.59;;;17.66;66.20
81379;BME280;70830;42.290;-71.354;2023-08-06T06:21:09;101020.84;;;17.64;66.14
81379;BME280;70830;42.290;-71.354;2023-08-06T06:23:35;101012.47;;;17.56;66.16
81379;BME280;70830;42.290;-71.354;2023-08-06T06:26:01;101018.00;;;17.53;65.76
81379;BME280;70830;42.290;-71.354;2023-08-06T06:28:27;101011.31;;;17.46;66.79
81379;BME280;70830;42.290;-71.354;2023-08-06T06:30:52;101022.84;;;17.46;65.87
81379;BME280;70830;42.290;-71.354;2023-08-06T06:33:18;101021.31;;;17.42;66.03
81379;BME280;70830;42.290;-71.354;2023-08-06T06:35:44;101015.44;;;17.37;67.11
81379;BME280;70830;42.290;-71.354;2023-08-06T06:38:10;101025.34;;;17.35;66.96
81379;BME280;70830;42.290;-71.354;2023-08-06T06:40:36;101017.06;;;17.26;66.88
81379;BME280;70830;42.290;-71.354;2023-08-06T06:43:03;101016.59;;;17.19;67.46
81379;BME280;70830;42.290;-71.354;2023-08-06T06:45:29;101022.88;;;17.18;67.33
81379;BME280;70830;42.290;-71.354;2023-08-06T06:47:54;101029.34;;;17.14;67.86
81379;BME280;70830;42.290;-71.354;2023-08-06T06:50:20;101036.75;;;17.09;67.74
81379;BME280;70830;42.290;-71.354;2023-08-06T06:52:46;101024.88;;;17.01;68.22
81379;BME280;70830;42.290;-71.354;2023-08-06T06:55:12;101032.97;;;16.99;68.08
81379;BME280;70830;42.290;-71.354;2023-08-06T06:57:38;101028.03;;;16.93;67.99
81379;BME280;70830;42.290;-71.354;2023-08-06T07:00:04;101031.03;;;16.87;68.74
81379;BME280;70830;42.290;-71.354;2023-08-06T07:02:31;101038.38;;;16.83;68.89
81379;BME280;70830;42.290;-71.354;2023-08-06T07:04:56;101037.69;;;16.80;68.66
81379;BME280;70830;42.290;-71.354;2023-08-06T07:07:22;101028.38;;;16.73;69.13
81379;BME280;70830;42.290;-71.354;2023-08-06T07:09:48;101022.31;;;16.71;69.95
81379;BME280;70830;42.290;-71.354;2023-08-06T07:12:14;101022.59;;;16.66;69.59
81379;BME280;70830;42.290;-71.354;2023-08-06T07:14:40;101019.22;;;16.63;70.06
81379;BME280;70830;42.290;-71.354;2023-08-06T07:17:06;101029.13;;;16.61;70.20
81379;BME280;70830;42.290;-71.354;2023-08-06T07:19:32;101019.50;;;16.58;70.50
81379;BME280;70830;42.290;-71.354;2023-08-06T07:21:58;101024.06;;;16.56;70.18
81379;BME280;70830;42.290;-71.354;2023-08-06T07:24:24;101026.72;;;16.56;70.02
81379;BME280;70830;42.290;-71.354;2023-08-06T07:26:49;101035.75;;;16.54;70.04
81379;BME280;70830;42.290;-71.354;2023-08-06T07:29:15;101033.09;;;16.54;70.20
81379;BME280;70830;42.290;-71.354;2023-08-06T07:31:46;101036.78;;;16.51;70.47
81379;BME280;70830;42.290;-71.354;2023-08-06T07:34:12;101036.97;;;16.48;71.06
81379;BME280;70830;42.290;-71.354;2023-08-06T07:36:38;101044.84;;;16.50;71.52
81379;BME280;70830;42.290;-71.354;2023-08-06T07:39:04;101036.97;;;16.48;71.11
81379;BME280;70830;42.290;-71.354;2023-08-06T07:41:31;101029.25;;;16.44;71.31
81379;BME280;70830;42.290;-71.354;2023-08-06T07:43:57;101032.19;;;16.39;70.92
81379;BME280;70830;42.290;-71.354;2023-08-06T07:46:23;101034.91;;;16.38;70.83
81379;BME280;70830;42.290;-71.354;2023-08-06T07:48:49;101027.31;;;16.32;71.30
81379;BME280;70830;42.290;-71.354;2023-08-06T07:51:15;101023.22;;;16.26;70.92
81379;BME280;70830;42.290;-71.354;2023-08-06T07:53:41;101019.88;;;16.23;71.64
81379;BME280;70830;42.290;-71.354;2023-08-06T07:56:07;101030.44;;;16.24;72.01
81379;BME280;70830;42.290;-71.354;2023-08-06T07:58:33;101021.84;;;16.19;72.27
81379;BME280;70830;42.290;-71.354;2023-08-06T08:00:59;101023.00;;;16.15;71.89
81379;BME280;70830;42.290;-71.354;2023-08-06T08:03:26;101024.88;;;16.13;72.17
81379;BME280;70830;42.290;-71.354;2023-08-06T08:05:54;101031.25;;;16.10;71.29
81379;BME280;70830;42.290;-71.354;2023-08-06T08:08:24;101033.97;;;16.09;72.34
81379;BME280;70830;42.290;-71.354;2023-08-06T08:10:50;101040.41;;;16.05;72.17
81379;BME280;70830;42.290;-71.354;2023-08-06T08:13:16;101030.81;;;16.02;71.90
81379;BME280;70830;42.290;-71.354;2023-08-06T08:15:42;101027.75;;;15.94;72.58
81379;BME280;70830;42.290;-71.354;2023-08-06T08:18:07;101028.78;;;15.92;72.18
81379;BME280;70830;42.290;-71.354;2023-08-06T08:20:33;101035.13;;;15.89;72.57
81379;BME280;70830;42.290;-71.354;2023-08-06T08:23:01;101036.09;;;15.88;72.68
81379;BME280;70830;42.290;-71.354;2023-08-06T08:25:27;101033.59;;;15.85;72.84
81379;BME280;70830;42.290;-71.354;2023-08-06T08:27:54;101036.41;;;15.82;72.95
81379;BME280;70830;42.290;-71.354;2023-08-06T08:30:21;101040.19;;;15.78;72.71
81379;BME280;70830;42.290;-71.354;2023-08-06T08:32:47;101036.09;;;15.73;72.23
81379;BME280;70830;42.290;-71.354;2023-08-06T08:35:14;101039.69;;;15.72;73.01
81379;BME280;70830;42.290;-71.354;2023-08-06T08:37:42;101042.44;;;15.70;73.55
81379;BME280;70830;42.290;-71.354;2023-08-06T08:40:09;101042.81;;;15.64;72.88
81379;BME280;70830;42.290;-71.354;2023-08-06T08:42:39;101049.81;;;15.65;73.87
81379;BME280;70830;42.290;-71.354;2023-08-06T08:45:11;101044.66;;;15.62;74.01
81379;BME280;70830;42.290;-71.354;2023-08-06T08:47:43;101039.69;;;15.56;73.51
81379;BME280;70830;42.290;-71.354;2023-08-06T08:50:10;101051.03;;;15.60;73.09
81379;BME280;70830;42.290;-71.354;2023-08-06T08:52:38;101048.63;;;15.55;73.65
81379;BME280;70830;42.290;-71.354;2023-08-06T08:55:05;101040.81;;;15.52;73.84
81379;BME280;70830;42.290;-71.354;2023-08-06T08:57:32;101052.31;;;15.53;73.12
81379;BME280;70830;42.290;-71.354;2023-08-06T08:59:58;101057.69;;;15.51;73.89
81379;BME280;70830;42.290;-71.354;2023-08-06T09:02:25;101049.91;;;15.48;73.59
81379;BME280;70830;42.290;-71.354;2023-08-06T09:04:59;101053.50;;;15.47;73.70
81379;BME280;70830;42.290;-71.354;2023-08-06T09:07:27;101063.09;;;15.50;74.58
81379;BME280;70830;42.290;-71.354;2023-08-06T09:09:56;101067.72;;;15.46;73.29
81379;BME280;70830;42.290;-71.354;2023-08-06T09:12:22;101067.81;;;15.45;74.13
81379;BME280;70830;42.290;-71.354;2023-08-06T09:14:48;101065.28;;;15.41;73.24
81379;BME280;70830;42.290;-71.354;2023-08-06T09:17:15;101068.81;;;15.42;73.95
81379;BME280;70830;42.290;-71.354;2023-08-06T09:19:45;101063.75;;;15.37;73.65
81379;BME280;70830;42.290;-71.354;2023-08-06T09:22:12;101058.69;;;15.33;74.13
81379;BME280;70830;42.290;-71.354;2023-08-06T09:24:41;101062.28;;;15.32;74.47
81379;BME280;70830;42.290;-71.354;2023-08-06T09:27:14;101063.38;;;15.28;73.73
81379;BME280;70830;42.290;-71.354;2023-08-06T09:29:40;101058.94;;;15.28;74.78
81379;BME280;70830;42.290;-71.354;2023-08-06T09:32:06;101057.31;;;15.26;73.67
81379;BME280;70830;42.290;-71.354;2023-08-06T09:34:32;101066.19;;;15.25;74.31
81379;BME280;70830;42.290;-71.354;2023-08-06T09:36:58;101062.97;;;15.20;73.97
81379;BME280;70830;42.290;-71.354;2023-08-06T09:39:28;101069.09;;;15.20;74.11
81379;BME280;70830;42.290;-71.354;2023-08-06T09:42:00;101070.94;;;15.20;73.88
81379;BME280;70830;42.290;-71.354;2023-08-06T09:44:28;101070.31;;;15.15;74.18
81379;BME280;70830;42.290;-71.354;2023-08-06T09:46:56;101080.94;;;15.15;73.93
81379;BME280;70830;42.290;-71.354;2023-08-06T09:49:25;101072.25;;;15.11;74.68
81379;BME280;70830;42.290;-71.354;2023-08-06T09:51:53;101068.91;;;15.08;74.58
81379;BME280;70830;42.290;-71.354;2023-08-06T09:54:25;101082.88;;;15.11;74.65
81379;BME280;70830;42.290;-71.354;2023-08-06T09:56:53;101073.22;;;15.10;74.18
81379;BME280;70830;42.290;-71.354;2023-08-06T09:59:19;101075.91;;;15.09;75.04
81379;BME280;70830;42.290;-71.354;2023-08-06T10:01:46;101075.78;;;15.12;74.68
81379;BME280;70830;42.290;-71.354;2023-08-06T10:04:13;101074.84;;;15.13;74.65
81379;BME280;70830;42.290;-71.354;2023-08-06T10:06:42;101073.84;;;15.15;74.94
81379;BME280;70830;42.290;-71.354;2023-08-06T10:09:08;101071.19;;;15.15;75.12
81379;BME280;70830;42.290;-71.354;2023-08-06T10:11:37;101071.84;;;15.19;74.74
81379;BME280;70830;42.290;-71.354;2023-08-06T10:16:35;101069.03;;;15.22;74.60
81379;BME280;70830;42.290;-71.354;2023-08-06T10:19:04;101081.91;;;15.29;74.21
81379;BME280;70830;42.290;-71.354;2023-08-06T10:21:31;101084.41;;;15.32;75.13
81379;BME280;70830;42.290;-71.354;2023-08-06T10:23:58;101093.81;;;15.38;75.03
81379;BME280;70830;42.290;-71.354;2023-08-06T10:26:27;101090.03;;;15.44;74.89
81379;BME280;70830;42.290;-71.354;2023-08-06T10:28:54;101101.06;;;15.52;74.57
81379;BME280;70830;42.290;-71.354;2023-08-06T10:31:20;101105.03;;;15.60;74.06
81379;BME280;70830;42.290;-71.354;2023-08-06T10:34:06;101099.28;;;15.68;74.14
81379;BME280;70830;42.290;-71.354;2023-08-06T10:36:33;101096.38;;;15.72;74.19
81379;BME280;70830;42.290;-71.354;2023-08-06T10:38:58;101097.50;;;15.84;74.55
81379;BME280;70830;42.290;-71.354;2023-08-06T10:41:29;101104.88;;;15.94;73.86
81379;BME280;70830;42.290;-71.354;2023-08-06T10:44:08;101113.28;;;16.02;73.92
81379;BME280;70830;42.290;-71.354;2023-08-06T10:46:35;101112.75;;;16.11;73.74
81379;BME280;70830;42.290;-71.354;2023-08-06T10:49:02;101107.78;;;16.21;74.24
81379;BME280;70830;42.290;-71.354;2023-08-06T10:51:29;101121.31;;;16.32;73.31
81379;BME280;70830;42.290;-71.354;2023-08-06T10:53:55;101115.28;;;16.44;73.67
81379;BME280;70830;42.290;-71.354;2023-08-06T10:56:26;101112.03;;;16.55;73.71
81379;BME280;70830;42.290;-71.354;2023-08-06T10:58:56;101103.41;;;16.65;72.96
81379;BME280;70830;42.290;-71.354;2023-08-06T11:01:23;101111.31;;;16.81;72.35
81379;BME280;70830;42.290;-71.354;2023-08-06T11:03:51;101114.09;;;16.94;72.70
81379;BME280;70830;42.290;-71.354;2023-08-06T11:06:19;101119.34;;;17.09;71.91
81379;BME280;70830;42.290;-71.354;2023-08-06T11:08:51;101114.06;;;17.23;71.85
81379;BME280;70830;42.290;-71.354;2023-08-06T11:11:17;101122.94;;;17.52;70.79
81379;BME280;70830;42.290;-71.354;2023-08-06T11:13:45;101114.75;;;17.96;70.22
81379;BME280;70830;42.290;-71.354;2023-08-06T11:16:15;101112.25;;;18.60;69.45
81379;BME280;70830;42.290;-71.354;2023-08-06T11:18:42;101125.38;;;19.28;68.08
81379;BME280;70830;42.290;-71.354;2023-08-06T11:21:09;101129.38;;;19.96;66.48
81379;BME280;70830;42.290;-71.354;2023-08-06T11:23:35;101120.09;;;20.60;64.61
81379;BME280;70830;42.290;-71.354;2023-08-06T11:26:01;101117.59;;;21.15;61.82
81379;BME280;70830;42.290;-71.354;2023-08-06T11:28:28;101112.03;;;21.63;59.70
81379;BME280;70830;42.290;-71.354;2023-08-06T11:30:54;101112.38;;;22.03;58.33
81379;BME280;70830;42.290;-71.354;2023-08-06T11:33:27;101115.06;;;22.45;57.21
81379;BME280;70830;42.290;-71.354;2023-08-06T11:35:57;101119.72;;;22.75;55.44
81379;BME280;70830;42.290;-71.354;2023-08-06T11:38:29;101111.97;;;23.02;54.28
81379;BME280;70830;42.290;-71.354;2023-08-06T11:40:56;101107.44;;;23.23;53.31
81379;BME280;70830;42.290;-71.354;2023-08-06T11:43:22;101113.47;;;23.37;52.53
81379;BME280;70830;42.290;-71.354;2023-08-06T11:45:49;101122.63;;;23.55;51.63
81379;BME280;70830;42.290;-71.354;2023-08-06T11:48:16;101118.19;;;23.74;51.26
81379;BME280;70830;42.290;-71.354;2023-08-06T11:50:43;101126.03;;;23.96;50.59
81379;BME280;70830;42.290;-71.354;2023-08-06T11:53:12;101131.78;;;24.13;49.38
81379;BME280;70830;42.290;-71.354;2023-08-06T11:55:38;101124.84;;;24.10;48.83
81379;BME280;70830;42.290;-71.354;2023-08-06T11:58:04;101116.91;;;24.18;48.41
81379;BME280;70830;42.290;-71.354;2023-08-06T12:00:30;101120.59;;;24.27;48.83
81379;BME280;70830;42.290;-71.354;2023-08-06T12:02:57;101127.16;;;24.43;48.14
81379;BME280;70830;42.290;-71.354;2023-08-06T12:05:28;101122.19;;;24.67;47.55
81379;BME280;70830;42.290;-71.354;2023-08-06T12:07:57;101126.88;;;24.85;46.80
81379;BME280;70830;42.290;-71.354;2023-08-06T12:10:25;101120.66;;;24.84;46.50
81379;BME280;70830;42.290;-71.354;2023-08-06T12:12:51;101120.34;;;24.97;46.27
81379;BME280;70830;42.290;-71.354;2023-08-06T12:15:17;101116.34;;;25.20;45.50
81379;BME280;70830;42.290;-71.354;2023-08-06T12:17:43;101114.00;;;25.44;44.76
81379;BME280;70830;42.290;-71.354;2023-08-06T12:20:10;101119.56;;;25.70;44.43
81379;BME280;70830;42.290;-71.354;2023-08-06T12:22:37;101118.28;;;26.01;43.66
81379;BME280;70830;42.290;-71.354;2023-08-06T12:25:06;101117.50;;;26.36;42.88
81379;BME280;70830;42.290;-71.354;2023-08-06T12:27:40;101117.19;;;26.56;42.24
81379;BME280;70830;42.290;-71.354;2023-08-06T12:30:07;101118.13;;;26.65;42.11
81379;BME280;70830;42.290;-71.354;2023-08-06T12:32:33;101123.63;;;26.73;41.47
81379;BME280;70830;42.290;-71.354;2023-08-06T12:35:00;101113.78;;;26.89;41.39
81379;BME280;70830;42.290;-71.354;2023-08-06T12:37:26;101112.59;;;27.10;40.16
81379;BME280;70830;42.290;-71.354;2023-08-06T12:39:52;101106.66;;;27.06;39.98